Time;durP1;ratioP1;P1;durP2;ratioP2;P2;SDS_P1;SDS_P2;PMS_P1;PMS_P2;Temp;Humidity;BMP_temperature;BMP_pressure;BME280_temperature;BME280_humidity;BME280_pressure;Samples;Min_cycle;Max_cycle;Signal;HPM_P1;HPM_P2
2024/01/23 00:02:01;;;;;;;23.08;14.68;;;1.80;99.90;;;;;;5059118;28;20043;-78
2024/01/23 00:04:26;;;;;;;23.92;12.63;;;1.80;99.90;;;;;;5058805;28;20025;-72
2024/01/23 00:06:52;;;;;;;24.20;13.60;;;1.80;99.90;;;;;;5072189;28;20048;-78
2024/01/23 00:09:18;;;;;;;22.27;13.68;;;1.80;99.90;;;;;;5070064;28;20085;-78
2024/01/23 00:11:43;;;;;;;21.40;13.13;;;1.80;99.90;;;;;;5054909;28;20055;-73
2024/01/23 00:14:09;;;;;;;23.67;14.35;;;1.80;99.90;;;;;;5065113;28;20028;-73
2024/01/23 00:16:35;;;;;;;23.25;14.32;;;1.80;99.90;;;;;;5071545;28;20017;-73
2024/01/23 00:19:00;;;;;;;21.00;13.05;;;1.80;99.90;;;;;;5060942;28;20052;-78
2024/01/23 00:21:26;;;;;;;21.20;14.40;;;1.80;99.90;;;;;;5044591;28;20481;-73
2024/01/23 00:23:52;;;;;;;23.73;13.63;;;1.80;99.90;;;;;;5069490;28;20600;-73
2024/01/23 00:26:18;;;;;;;29.77;15.02;;;1.80;99.90;;;;;;5056854;28;20385;-73
2024/01/23 00:28:43;;;;;;;23.80;13.77;;;1.80;99.90;;;;;;5061527;28;20009;-73
2024/01/23 00:31:09;;;;;;;22.80;12.43;;;1.80;99.90;;;;;;5056357;28;20024;-73
2024/01/23 00:33:35;;;;;;;23.90;12.70;;;1.80;99.90;;;;;;5063666;28;20024;-73
2024/01/23 00:36:00;;;;;;;23.80;13.57;;;1.80;99.90;;;;;;5059963;28;20063;-73
2024/01/23 00:38:26;;;;;;;22.38;13.85;;;1.80;99.90;;;;;;5059677;28;20016;-78
2024/01/23 00:40:51;;;;;;;20.80;12.25;;;1.80;99.90;;;;;;5064084;28;20110;-78
2024/01/23 00:43:17;;;;;;;21.70;13.00;;;1.80;99.90;;;;;;5069015;28;20385;-73
2024/01/23 00:45:43;;;;;;;21.48;12.68;;;1.80;99.90;;;;;;5066068;28;20017;-78
2024/01/23 00:48:09;;;;;;;19.50;11.75;;;1.80;99.90;;;;;;5067452;28;20123;-78
2024/01/23 00:50:34;;;;;;;27.02;14.90;;;1.80;99.90;;;;;;5066156;28;20564;-78
2024/01/23 00:53:00;;;;;;;19.58;12.82;;;1.80;99.90;;;;;;5069391;28;20020;-78
2024/01/23 00:55:25;;;;;;;21.08;13.75;;;1.80;99.90;;;;;;5067428;28;20051;-78
2024/01/23 00:57:51;;;;;;;25.23;13.65;;;1.70;99.90;;;;;;5068954;28;20025;-73
2024/01/23 01:00:17;;;;;;;20.02;12.80;;;1.80;99.90;;;;;;5064588;28;20021;-73
2024/01/23 01:02:43;;;;;;;21.45;13.35;;;1.80;99.90;;;;;;5059668;28;20033;-73
2024/01/23 01:05:08;;;;;;;23.08;12.30;;;1.80;99.90;;;;;;5066991;28;20484;-78
2024/01/23 01:07:34;;;;;;;19.77;12.15;;;1.80;99.90;;;;;;5060078;28;20032;-73
2024/01/23 01:09:59;;;;;;;24.38;13.00;;;1.80;99.90;;;;;;5066555;28;20024;-73
2024/01/23 01:12:25;;;;;;;24.33;13.90;;;1.80;99.90;;;;;;5058954;28;20068;-73
2024/01/23 01:14:51;;;;;;;25.10;12.55;;;1.80;99.90;;;;;;5061701;28;20029;-73
2024/01/23 01:17:16;;;;;;;23.08;12.73;;;1.80;99.90;;;;;;5059381;28;20491;-73
2024/01/23 01:19:42;;;;;;;22.27;12.50;;;1.80;99.90;;;;;;5064707;28;20106;-74
2024/01/23 01:22:07;;;;;;;20.33;11.77;;;1.80;99.90;;;;;;5060789;28;20478;-79
2024/01/23 01:24:33;;;;;;;25.75;12.88;;;1.70;99.90;;;;;;5069986;28;20024;-78
2024/01/23 01:26:59;;;;;;;24.30;13.60;;;1.70;99.90;;;;;;5068882;28;20413;-79
2024/01/23 01:29:24;;;;;;;22.10;13.30;;;1.70;99.90;;;;;;5069829;28;20031;-79
2024/01/23 01:31:51;;;;;;;23.15;13.18;;;1.70;99.90;;;;;;5070212;28;20032;-74
2024/01/23 01:34:16;;;;;;;23.92;13.52;;;1.70;99.90;;;;;;5070075;28;20044;-74
2024/01/23 01:36:42;;;;;;;18.95;11.45;;;1.70;99.90;;;;;;5068544;28;20021;-79
2024/01/23 01:39:11;;;;;;;22.35;13.52;;;1.70;99.90;;;;;;5063125;28;20021;-73
2024/01/23 01:41:37;;;;;;;26.35;14.68;;;1.70;99.90;;;;;;5064835;28;20085;-78
2024/01/23 01:44:02;;;;;;;25.02;14.65;;;1.70;99.90;;;;;;5070820;28;20479;-77
2024/01/23 01:46:28;;;;;;;24.92;14.73;;;1.70;99.90;;;;;;5069118;28;20502;-73
2024/01/23 01:48:55;;;;;;;23.05;12.85;;;1.70;99.90;;;;;;5069701;28;20512;-77
2024/01/23 01:51:24;;;;;;;21.45;14.38;;;1.70;99.90;;;;;;5068755;28;20025;-73
2024/01/23 01:53:50;;;;;;;27.08;14.25;;;1.70;99.90;;;;;;5051235;28;20017;-78
2024/01/23 01:56:18;;;;;;;25.52;14.25;;;1.60;99.90;;;;;;5066555;28;20418;-73
2024/01/23 01:58:45;;;;;;;28.48;15.27;;;1.60;99.90;;;;;;5051632;28;20024;-78
2024/01/23 02:01:11;;;;;;;23.17;14.38;;;1.60;99.90;;;;;;5057239;28;20067;-79
2024/01/23 02:03:37;;;;;;;25.27;13.73;;;1.60;99.90;;;;;;5040885;28;20451;-78
2024/01/23 02:06:04;;;;;;;26.80;15.52;;;1.60;99.90;;;;;;5053064;28;20025;-78
2024/01/23 02:08:30;;;;;;;28.38;16.70;;;1.60;99.90;;;;;;5054205;28;20025;-73
2024/01/23 02:10:56;;;;;;;27.98;15.82;;;1.50;99.90;;;;;;5067120;28;20050;-78
2024/01/23 02:13:22;;;;;;;29.35;14.48;;;1.50;99.90;;;;;;5073585;28;20036;-73
2024/01/23 02:15:48;;;;;;;25.90;15.23;;;1.50;99.90;;;;;;5073425;28;20056;-79
2024/01/23 02:18:14;;;;;;;27.05;15.88;;;1.60;99.90;;;;;;5066927;28;20095;-73
2024/01/23 02:20:40;;;;;;;30.80;17.70;;;1.50;99.90;;;;;;5052756;28;20533;-78
2024/01/23 02:23:11;;;;;;;29.70;14.80;;;1.50;99.90;;;;;;5068149;28;20103;-73
2024/01/23 02:25:37;;;;;;;25.90;14.43;;;1.50;99.90;;;;;;5061164;28;20079;-78
2024/01/23 02:28:03;;;;;;;26.48;14.90;;;1.50;99.90;;;;;;5068143;28;20032;-73
2024/01/23 02:30:28;;;;;;;24.80;13.88;;;1.50;99.90;;;;;;5062224;28;20021;-78
2024/01/23 02:32:54;;;;;;;30.05;15.57;;;1.50;99.90;;;;;;5068034;28;20077;-78
2024/01/23 02:35:20;;;;;;;26.58;14.98;;;1.50;99.90;;;;;;5072036;28;20025;-78
2024/01/23 02:37:45;;;;;;;26.55;14.45;;;1.50;99.90;;;;;;5073176;28;20024;-73
2024/01/23 02:40:11;;;;;;;26.58;14.82;;;1.50;99.90;;;;;;5071702;28;20126;-74
2024/01/23 02:42:37;;;;;;;25.05;14.18;;;1.50;99.90;;;;;;5071537;28;20029;-78
2024/01/23 02:45:03;;;;;;;26.98;15.85;;;1.50;99.90;;;;;;5071076;28;20025;-74
2024/01/23 02:47:28;;;;;;;30.55;17.88;;;1.50;99.90;;;;;;5072740;28;20032;-78
2024/01/23 02:49:54;;;;;;;25.27;15.15;;;1.50;99.90;;;;;;5071002;28;20021;-76
2024/01/23 02:52:20;;;;;;;36.08;18.20;;;1.50;99.90;;;;;;5072623;28;20355;-77
2024/01/23 02:54:45;;;;;;;28.35;15.88;;;1.50;99.90;;;;;;5070082;28;20024;-72
2024/01/23 02:57:13;;;;;;;28.40;15.82;;;1.50;99.90;;;;;;5072337;28;20024;-77
2024/01/23 02:59:39;;;;;;;29.20;15.65;;;1.50;99.90;;;;;;5070519;28;20052;-77
2024/01/23 03:02:05;;;;;;;32.92;17.00;;;1.50;99.90;;;;;;5053321;28;20067;-72
2024/01/23 03:04:30;;;;;;;39.30;20.45;;;1.50;99.90;;;;;;5053599;28;20032;-78
2024/01/23 03:06:56;;;;;;;46.95;21.70;;;1.40;99.90;;;;;;5053356;28;20021;-78
2024/01/23 03:09:22;;;;;;;32.65;17.27;;;1.40;99.90;;;;;;5066237;28;20562;-77
2024/01/23 03:11:47;;;;;;;33.25;17.48;;;1.40;99.90;;;;;;5052164;28;20052;-73
2024/01/23 03:14:13;;;;;;;30.98;17.02;;;1.40;99.90;;;;;;5052311;28;20020;-76
2024/01/23 03:16:39;;;;;;;29.85;16.05;;;1.40;99.90;;;;;;5064666;28;20024;-73
2024/01/23 03:19:04;;;;;;;34.83;17.73;;;1.40;99.90;;;;;;5060241;28;20120;-73
2024/01/23 03:21:30;;;;;;;27.40;16.52;;;1.40;99.90;;;;;;5064691;28;20101;-72
2024/01/23 03:23:58;;;;;;;28.70;16.77;;;1.40;99.90;;;;;;5059857;28;20017;-73
2024/01/23 03:26:23;;;;;;;30.33;16.83;;;1.40;99.90;;;;;;5066247;28;20021;-74
2024/01/23 03:28:49;;;;;;;29.02;16.95;;;1.40;99.90;;;;;;5064085;28;20505;-78
2024/01/23 03:31:15;;;;;;;28.80;15.10;;;1.30;99.90;;;;;;5064925;28;20486;-73
2024/01/23 03:33:41;;;;;;;30.17;17.20;;;1.30;99.90;;;;;;5059764;28;20036;-78
2024/01/23 03:36:07;;;;;;;30.15;17.05;;;1.30;99.90;;;;;;5054146;28;20104;-72
2024/01/23 03:38:33;;;;;;;35.05;19.08;;;1.30;99.90;;;;;;5052689;28;20039;-78
2024/01/23 03:40:59;;;;;;;29.75;17.67;;;1.30;99.90;;;;;;5046966;28;20017;-72
2024/01/23 03:43:24;;;;;;;30.27;17.77;;;1.30;99.90;;;;;;5052805;28;20021;-73
2024/01/23 03:45:50;;;;;;;30.35;17.58;;;1.30;99.90;;;;;;5059689;28;20099;-73
2024/01/23 03:48:18;;;;;;;32.50;17.98;;;1.30;99.90;;;;;;5059439;28;20478;-78
2024/01/23 03:50:44;;;;;;;29.02;16.05;;;1.30;99.90;;;;;;5065352;28;20020;-78
2024/01/23 03:53:10;;;;;;;30.85;17.10;;;1.30;99.90;;;;;;5055620;28;20040;-73
2024/01/23 03:55:36;;;;;;;33.35;17.90;;;1.30;99.90;;;;;;5054533;28;20021;-73
2024/01/23 03:58:01;;;;;;;30.40;17.05;;;1.20;99.90;;;;;;5069627;28;20020;-73
2024/01/23 04:00:28;;;;;;;30.02;16.25;;;1.20;99.90;;;;;;5068869;28;20021;-73
2024/01/23 04:02:54;;;;;;;35.15;17.75;;;1.20;99.90;;;;;;5059217;28;20039;-73
2024/01/23 04:05:20;;;;;;;34.67;17.67;;;1.20;99.90;;;;;;5061702;28;20382;-78
2024/01/23 04:07:47;;;;;;;39.72;18.42;;;1.20;99.90;;;;;;5061697;28;20024;-79
2024/01/23 04:10:13;;;;;;;31.05;16.98;;;1.20;99.90;;;;;;5055970;28;20017;-79
2024/01/23 04:12:40;;;;;;;30.67;17.80;;;1.20;99.90;;;;;;5055274;28;20032;-79
2024/01/23 04:15:07;;;;;;;32.08;16.65;;;1.20;99.90;;;;;;5056747;28;20017;-78
2024/01/23 04:17:32;;;;;;;29.13;17.33;;;1.20;99.90;;;;;;5056764;28;20029;-78
2024/01/23 04:19:58;;;;;;;35.70;19.38;;;1.10;99.90;;;;;;5056782;28;20052;-74
2024/01/23 04:22:24;;;;;;;33.40;19.25;;;1.10;99.90;;;;;;5056310;28;20033;-73
2024/01/23 04:24:49;;;;;;;36.67;20.23;;;1.10;99.90;;;;;;5066887;28;20021;-73
2024/01/23 04:27:15;;;;;;;41.10;20.02;;;1.10;99.90;;;;;;5058693;28;20021;-77
2024/01/23 04:29:41;;;;;;;37.72;20.55;;;1.10;99.90;;;;;;5055215;28;20119;-78
2024/01/23 04:32:07;;;;;;;35.15;20.73;;;1.10;99.90;;;;;;5055380;28;20386;-78
2024/01/23 04:34:32;;;;;;;41.67;20.85;;;1.10;99.90;;;;;;5056641;28;20017;-73
2024/01/23 04:36:58;;;;;;;37.95;20.08;;;1.00;99.90;;;;;;5057794;28;20017;-78
2024/01/23 04:39:24;;;;;;;36.97;20.17;;;1.00;99.90;;;;;;5057023;28;20478;-78
2024/01/23 04:41:49;;;;;;;43.30;22.67;;;1.00;99.90;;;;;;5056092;28;20033;-78
2024/01/23 04:44:15;;;;;;;39.65;21.15;;;1.00;99.90;;;;;;5056540;28;20021;-73
2024/01/23 04:46:41;;;;;;;35.95;19.95;;;1.00;99.90;;;;;;5060995;28;20021;-73
2024/01/23 04:49:06;;;;;;;42.65;21.27;;;1.00;99.90;;;;;;5073220;28;20363;-73
2024/01/23 04:51:32;;;;;;;38.85;20.40;;;1.00;99.90;;;;;;5071054;28;20029;-74
2024/01/23 04:53:58;;;;;;;42.10;21.27;;;1.00;99.90;;;;;;5073687;28;20027;-73
2024/01/23 04:56:23;;;;;;;42.10;22.08;;;1.00;99.90;;;;;;5070997;28;20024;-73
2024/01/23 04:58:49;;;;;;;43.83;22.80;;;0.90;99.90;;;;;;5072158;28;20033;-73
2024/01/23 05:01:15;;;;;;;46.92;25.02;;;1.00;99.90;;;;;;5070721;28;20025;-73
2024/01/23 05:03:41;;;;;;;46.22;24.98;;;1.00;99.90;;;;;;5073291;28;20017;-78
2024/01/23 05:06:06;;;;;;;44.88;24.05;;;0.90;99.90;;;;;;5071208;28;20032;-78
2024/01/23 05:08:32;;;;;;;46.17;23.95;;;0.90;99.90;;;;;;5072458;28;20024;-73
2024/01/23 05:10:57;;;;;;;43.95;24.92;;;0.90;99.90;;;;;;5071456;28;20028;-77
2024/01/23 05:13:23;;;;;;;40.92;22.00;;;0.90;99.90;;;;;;5073563;28;20406;-73
2024/01/23 05:15:49;;;;;;;43.97;22.95;;;0.90;99.90;;;;;;5068115;28;20423;-72
2024/01/23 05:18:14;;;;;;;40.05;22.92;;;0.90;99.90;;;;;;5065113;28;20131;-77
2024/01/23 05:20:40;;;;;;;43.15;23.20;;;0.90;99.90;;;;;;5066898;28;20423;-78
2024/01/23 05:23:06;;;;;;;45.05;23.48;;;0.90;99.90;;;;;;5065144;28;20436;-78
2024/01/23 05:25:32;;;;;;;47.83;25.05;;;0.90;99.90;;;;;;5071572;28;20024;-78
2024/01/23 05:27:58;;;;;;;42.05;22.85;;;0.90;99.90;;;;;;5073501;28;20107;-77
2024/01/23 05:30:23;;;;;;;50.75;23.98;;;0.90;99.90;;;;;;5070041;28;20017;-73
2024/01/23 05:32:50;;;;;;;47.05;23.65;;;0.90;99.90;;;;;;5073282;28;20033;-77
2024/01/23 05:35:16;;;;;;;43.75;24.00;;;0.90;99.90;;;;;;5071107;28;20028;-72
2024/01/23 05:37:42;;;;;;;57.53;27.02;;;0.90;99.90;;;;;;5071985;28;20043;-73
2024/01/23 05:40:11;;;;;;;73.85;32.40;;;0.90;99.90;;;;;;5070019;28;20017;-77
2024/01/23 05:42:37;;;;;;;66.45;32.08;;;0.90;99.90;;;;;;5071820;28;20056;-78
2024/01/23 05:45:03;;;;;;;82.75;36.20;;;0.90;99.90;;;;;;5054742;28;20021;-72
2024/01/23 05:47:30;;;;;;;53.00;27.27;;;0.90;99.90;;;;;;5054893;28;20083;-77
2024/01/23 05:49:55;;;;;;;49.45;26.05;;;0.90;99.90;;;;;;5054817;28;20482;-73
2024/01/23 05:52:21;;;;;;;54.40;26.92;;;0.90;99.90;;;;;;5064477;28;20029;-78
2024/01/23 05:54:47;;;;;;;53.30;26.25;;;0.90;99.90;;;;;;5061918;28;20016;-77
2024/01/23 05:57:12;;;;;;;62.03;29.58;;;0.90;99.90;;;;;;5059936;28;20025;-77
2024/01/23 05:59:38;;;;;;;49.00;25.60;;;0.90;99.90;;;;;;5068179;28;20382;-72
2024/01/23 06:02:04;;;;;;;47.00;26.20;;;0.90;99.90;;;;;;5059137;28;20121;-77
2024/01/23 06:04:30;;;;;;;49.03;26.33;;;0.90;99.90;;;;;;5055732;28;20017;-78
2024/01/23 06:06:56;;;;;;;54.47;26.30;;;0.80;99.90;;;;;;5058157;28;20017;-77
2024/01/23 06:09:22;;;;;;;51.80;26.10;;;0.90;99.90;;;;;;5058151;28;20031;-78
2024/01/23 06:11:47;;;;;;;57.63;29.10;;;0.80;99.90;;;;;;5062494;28;20029;-78
2024/01/23 06:14:13;;;;;;;52.90;26.27;;;0.90;99.90;;;;;;5056625;28;20020;-73
2024/01/23 06:16:38;;;;;;;49.45;26.42;;;0.90;99.90;;;;;;5062895;28;20025;-78
2024/01/23 06:19:10;;;;;;;48.45;24.08;;;0.90;99.90;;;;;;5059319;28;20051;-73
2024/01/23 06:21:37;;;;;;;53.05;26.08;;;0.90;99.90;;;;;;5045717;28;20095;-73
2024/01/23 06:24:04;;;;;;;48.25;25.00;;;0.90;99.90;;;;;;5065653;28;20051;-74
2024/01/23 06:26:29;;;;;;;53.38;25.90;;;0.90;99.90;;;;;;5045974;28;20092;-73
2024/01/23 06:28:55;;;;;;;48.17;25.95;;;0.90;99.90;;;;;;5050392;28;20100;-74
2024/01/23 06:31:25;;;;;;;54.40;28.00;;;0.90;99.90;;;;;;5052392;28;20468;-74
2024/01/23 06:33:52;;;;;;;45.88;25.77;;;0.90;99.90;;;;;;5051455;28;20014;-73
2024/01/23 06:36:17;;;;;;;45.28;25.52;;;0.90;99.90;;;;;;5050918;28;20124;-74
2024/01/23 06:38:43;;;;;;;48.13;26.88;;;0.90;99.90;;;;;;5051564;28;20100;-74
2024/01/23 06:41:09;;;;;;;52.17;26.38;;;0.90;99.90;;;;;;5052352;28;20048;-79
2024/01/23 06:43:35;;;;;;;54.97;27.10;;;0.90;99.90;;;;;;5053025;28;20025;-74
2024/01/23 06:46:02;;;;;;;53.85;28.38;;;0.90;99.90;;;;;;5051691;28;20064;-79
2024/01/23 06:48:28;;;;;;;53.13;28.08;;;0.90;99.90;;;;;;5057330;28;20580;-74
2024/01/23 06:50:54;;;;;;;57.13;28.60;;;0.90;99.90;;;;;;5055233;28;20107;-80
2024/01/23 06:53:19;;;;;;;56.33;27.88;;;1.00;99.90;;;;;;5055149;28;20432;-74
2024/01/23 06:55:45;;;;;;;53.70;27.75;;;1.00;99.90;;;;;;5049002;28;20033;-80
2024/01/23 06:58:11;;;;;;;59.25;30.02;;;1.00;99.90;;;;;;5050116;28;20033;-79
2024/01/23 07:00:37;;;;;;;54.45;27.38;;;1.00;99.90;;;;;;5056652;28;20044;-73
2024/01/23 07:03:03;;;;;;;54.80;28.50;;;1.00;99.90;;;;;;5060079;28;20047;-74
2024/01/23 07:05:28;;;;;;;52.10;26.83;;;1.00;99.90;;;;;;5050487;28;20017;-79
2024/01/23 07:07:54;;;;;;;55.60;29.05;;;1.00;99.90;;;;;;5048227;28;20058;-73
2024/01/23 07:10:20;;;;;;;57.10;27.90;;;1.00;99.90;;;;;;5053121;28;20082;-74
2024/01/23 07:12:46;;;;;;;50.28;27.67;;;1.00;99.90;;;;;;5049101;28;20521;-74
2024/01/23 07:15:11;;;;;;;50.78;27.38;;;1.00;99.90;;;;;;5059189;28;20043;-76
2024/01/23 07:17:37;;;;;;;53.55;27.02;;;1.10;99.90;;;;;;5065563;28;20075;-79
2024/01/23 07:20:04;;;;;;;53.13;27.70;;;1.00;99.90;;;;;;5070146;28;20153;-74
2024/01/23 07:22:30;;;;;;;53.90;28.05;;;1.10;99.90;;;;;;5064639;28;20402;-80
2024/01/23 07:24:55;;;;;;;53.95;26.27;;;1.10;99.90;;;;;;5067123;28;20021;-74
2024/01/23 07:27:21;;;;;;;50.35;25.90;;;1.20;99.90;;;;;;5064957;28;20017;-75
2024/01/23 07:29:46;;;;;;;52.50;26.55;;;1.20;99.90;;;;;;5068616;28;20024;-74
2024/01/23 07:32:12;;;;;;;52.72;26.58;;;1.20;99.90;;;;;;5065840;28;20375;-74
2024/01/23 07:34:38;;;;;;;50.90;25.70;;;1.20;99.90;;;;;;5059358;28;20052;-74
2024/01/23 07:37:04;;;;;;;58.03;26.83;;;1.10;99.90;;;;;;5061527;28;20013;-80
2024/01/23 07:39:29;;;;;;;57.42;29.20;;;1.20;99.90;;;;;;5066880;28;20024;-74
2024/01/23 07:41:55;;;;;;;52.97;27.63;;;1.10;99.90;;;;;;5066949;28;20108;-79
2024/01/23 07:44:21;;;;;;;55.05;28.67;;;1.20;99.90;;;;;;5061390;28;20056;-74
2024/01/23 07:46:49;;;;;;;59.00;28.95;;;1.20;99.90;;;;;;5064420;28;20017;-74
2024/01/23 07:49:16;;;;;;;50.80;28.05;;;1.20;99.90;;;;;;5052902;28;20036;-79
2024/01/23 07:51:49;;;;;;;51.97;26.50;;;1.20;99.90;;;;;;5052527;28;20095;-75
2024/01/23 07:54:15;;;;;;;48.78;26.23;;;1.10;99.90;;;;;;5052780;28;20035;-74
2024/01/23 07:56:41;;;;;;;56.58;28.35;;;1.10;99.90;;;;;;5052558;28;20016;-80
2024/01/23 07:59:06;;;;;;;53.35;26.80;;;1.20;99.90;;;;;;5051827;28;20565;-79
2024/01/23 08:01:32;;;;;;;56.55;28.58;;;1.20;99.90;;;;;;5053593;28;20398;-74
2024/01/23 08:03:58;;;;;;;53.03;29.27;;;1.40;99.90;;;;;;5053056;28;20025;-73
2024/01/23 08:06:24;;;;;;;49.15;26.25;;;1.40;99.90;;;;;;5052625;28;20104;-74
2024/01/23 08:08:51;;;;;;;46.40;25.13;;;1.50;99.90;;;;;;5053643;28;20382;-79
2024/01/23 08:11:17;;;;;;;45.95;26.92;;;1.60;99.90;;;;;;5053009;28;20017;-74
2024/01/23 08:13:43;;;;;;;49.85;25.98;;;1.50;99.90;;;;;;5053167;28;20409;-74
2024/01/23 08:16:09;;;;;;;54.88;25.50;;;1.60;99.90;;;;;;5057604;28;20095;-74
2024/01/23 08:18:38;;;;;;;49.90;26.75;;;1.60;99.90;;;;;;5056198;28;20053;-79
2024/01/23 08:21:04;;;;;;;55.70;26.20;;;1.50;99.90;;;;;;5058544;28;20021;-74
2024/01/23 08:23:30;;;;;;;50.17;25.45;;;1.60;99.90;;;;;;5056117;28;20104;-74
2024/01/23 08:25:55;;;;;;;49.15;25.85;;;1.60;99.90;;;;;;5059618;28;20101;-79
2024/01/23 08:28:23;;;;;;;44.90;23.85;;;1.60;99.90;;;;;;5056144;28;20051;-79
2024/01/23 08:30:49;;;;;;;56.72;26.75;;;1.60;99.90;;;;;;5059209;28;20025;-80
2024/01/23 08:33:18;;;;;;;43.22;23.02;;;1.70;99.90;;;;;;5056679;28;20025;-79
2024/01/23 08:35:44;;;;;;;48.40;25.08;;;1.70;99.90;;;;;;5051191;28;20440;-74
2024/01/23 08:38:10;;;;;;;47.00;24.85;;;1.70;99.90;;;;;;5055842;28;20055;-74
2024/01/23 08:40:37;;;;;;;49.20;25.25;;;1.70;99.90;;;;;;5060945;28;20031;-74
2024/01/23 08:43:04;;;;;;;50.10;25.80;;;1.70;99.90;;;;;;5057520;28;20543;-74
2024/01/23 08:45:29;;;;;;;42.92;23.63;;;1.60;99.90;;;;;;5056529;28;20040;-74
2024/01/23 08:47:55;;;;;;;45.28;24.10;;;1.70;99.90;;;;;;5074582;28;20477;-79
2024/01/23 08:50:21;;;;;;;54.67;26.75;;;1.70;99.90;;;;;;5041334;28;20052;-78
2024/01/23 08:52:47;;;;;;;47.38;26.67;;;1.70;99.90;;;;;;5055887;28;20025;-74
2024/01/23 08:55:14;;;;;;;51.30;26.20;;;1.80;99.90;;;;;;5061060;28;20074;-73
2024/01/23 08:57:40;;;;;;;49.95;26.17;;;1.80;99.90;;;;;;5060851;28;20406;-74
2024/01/23 09:00:08;;;;;;;50.85;25.40;;;1.80;99.90;;;;;;5049435;28;20020;-79
2024/01/23 09:02:33;;;;;;;46.20;24.13;;;1.80;99.90;;;;;;5073837;28;20101;-75
2024/01/23 09:04:59;;;;;;;47.13;23.15;;;1.90;99.90;;;;;;5075164;28;20513;-74
2024/01/23 09:07:25;;;;;;;52.95;25.13;;;2.00;99.90;;;;;;5074484;28;20035;-74
2024/01/23 09:09:51;;;;;;;53.55;26.05;;;2.00;99.90;;;;;;5075118;28;20070;-79
2024/01/23 09:12:17;;;;;;;48.05;25.73;;;2.00;99.90;;;;;;5074675;28;20028;-79
2024/01/23 09:14:43;;;;;;;46.65;23.17;;;2.00;99.90;;;;;;5073914;28;20032;-74
2024/01/23 09:17:09;;;;;;;41.78;21.52;;;2.10;99.90;;;;;;5073188;28;20017;-80
2024/01/23 09:19:34;;;;;;;47.03;23.10;;;2.10;99.90;;;;;;5075072;28;20082;-74
2024/01/23 09:22:00;;;;;;;49.67;23.70;;;2.10;99.90;;;;;;5072586;28;20078;-77
2024/01/23 09:24:26;;;;;;;46.55;23.45;;;2.20;99.90;;;;;;5073558;28;20366;-73
2024/01/23 09:26:51;;;;;;;45.40;23.90;;;2.20;99.90;;;;;;5073599;28;20054;-73
2024/01/23 09:29:17;;;;;;;39.38;21.73;;;2.30;99.90;;;;;;5073481;28;20062;-74
2024/01/23 09:31:52;;;;;;;41.83;20.85;;;2.30;99.90;;;;;;5073003;28;20477;-74
2024/01/23 09:34:17;;;;;;;48.20;23.20;;;2.30;99.90;;;;;;5074203;28;20058;-74
2024/01/23 09:36:43;;;;;;;42.75;22.80;;;2.30;99.90;;;;;;5073107;28;20431;-74
2024/01/23 09:39:13;;;;;;;39.08;21.60;;;2.40;99.90;;;;;;5072840;28;20422;-74
2024/01/23 09:41:49;;;;;;;44.10;23.60;;;2.40;99.90;;;;;;5070974;28;20037;-79
2024/01/23 09:44:16;;;;;;;32.50;20.17;;;2.40;99.90;;;;;;5064040;28;20021;-80
2024/01/23 09:46:43;;;;;;;52.42;22.20;;;2.50;99.90;;;;;;5071157;28;20024;-74
2024/01/23 09:49:09;;;;;;;40.25;21.48;;;2.50;99.90;;;;;;5074662;28;20485;-73
2024/01/23 09:51:37;;;;;;;38.47;20.60;;;2.60;99.90;;;;;;5073899;28;20036;-80
2024/01/23 09:54:03;;;;;;;35.00;18.60;;;2.60;99.90;;;;;;5073084;28;20103;-79
2024/01/23 09:56:30;;;;;;;41.03;19.98;;;2.70;99.90;;;;;;5072766;28;20143;-74
2024/01/23 09:58:57;;;;;;;36.92;20.63;;;2.70;99.90;;;;;;5073700;28;20012;-73
2024/01/23 10:01:23;;;;;;;42.45;19.80;;;2.70;99.90;;;;;;5057029;28;20061;-74
2024/01/23 10:03:50;;;;;;;38.85;20.67;;;2.70;99.90;;;;;;5065492;28;20498;-74
2024/01/23 10:06:15;;;;;;;35.45;19.38;;;2.70;99.90;;;;;;5073580;28;20017;-79
2024/01/23 10:08:42;;;;;;;42.33;21.80;;;2.70;99.90;;;;;;5073066;28;20474;-74
2024/01/23 10:11:10;;;;;;;42.67;22.88;;;2.70;99.90;;;;;;5062028;28;20066;-74
2024/01/23 10:13:37;;;;;;;42.15;21.67;;;2.60;99.90;;;;;;5065812;28;20024;-75
2024/01/23 10:16:04;;;;;;;47.85;22.83;;;2.70;99.90;;;;;;5070823;28;20112;-79
2024/01/23 10:18:29;;;;;;;38.58;21.38;;;2.60;99.90;;;;;;5069129;28;20055;-79
2024/01/23 10:20:55;;;;;;;43.22;22.15;;;2.70;99.90;;;;;;5070548;28;20017;-74
2024/01/23 10:23:21;;;;;;;41.03;20.50;;;2.70;99.90;;;;;;5069648;28;20104;-74
2024/01/23 10:25:47;;;;;;;48.38;23.92;;;2.70;99.90;;;;;;5070737;28;20021;-79
2024/01/23 10:28:13;;;;;;;45.00;23.40;;;2.70;99.90;;;;;;5070684;28;20032;-74
2024/01/23 10:30:40;;;;;;;52.63;26.30;;;2.80;99.90;;;;;;5070900;28;20027;-79
2024/01/23 10:33:06;;;;;;;63.45;30.90;;;2.80;99.90;;;;;;5070288;28;20363;-79
2024/01/23 10:35:35;;;;;;;55.55;25.52;;;2.90;99.90;;;;;;5069706;28;20048;-75
2024/01/23 10:38:23;;;;;;;45.35;25.73;;;2.90;99.90;;;;;;5070951;28;20028;-74
2024/01/23 10:40:51;;;;;;;107.45;46.33;;;3.00;99.90;;;;;;5053512;28;20111;-80
2024/01/23 10:43:17;;;;;;;218.57;72.70;;;3.00;99.90;;;;;;5067285;28;20056;-80
2024/01/23 10:45:45;;;;;;;70.35;33.22;;;3.00;99.90;;;;;;5060649;28;20067;-74
2024/01/23 10:48:11;;;;;;;97.90;39.08;;;3.00;99.90;;;;;;5072931;28;20509;-80
2024/01/23 10:50:38;;;;;;;255.18;88.43;;;3.10;99.90;;;;;;5073231;28;20070;-80
2024/01/23 10:53:06;;;;;;;153.95;55.13;;;3.10;99.90;;;;;;5071497;28;20477;-80
2024/01/23 10:55:32;;;;;;;75.18;32.78;;;3.10;99.90;;;;;;5073250;28;20546;-74
2024/01/23 10:58:13;;;;;;;98.65;41.42;;;3.20;99.90;;;;;;5073116;28;20104;-74
2024/01/23 11:00:39;;;;;;;190.90;72.93;;;3.30;99.90;;;;;;5072178;28;20033;-74
2024/01/23 11:03:06;;;;;;;157.90;59.25;;;3.30;99.90;;;;;;5072551;28;20398;-79
2024/01/23 11:05:45;;;;;;;81.72;33.47;;;3.40;99.90;;;;;;5061488;28;20031;-79
2024/01/23 11:08:30;;;;;;;113.28;45.28;;;3.40;99.90;;;;;;5058902;28;20493;-74
2024/01/23 11:10:59;;;;;;;90.07;37.53;;;3.40;99.90;;;;;;5072058;28;20090;-79
2024/01/23 11:13:38;;;;;;;79.43;36.10;;;3.40;99.90;;;;;;5071279;28;20023;-80
2024/01/23 11:16:06;;;;;;;65.18;32.05;;;3.40;99.90;;;;;;5072480;28;20418;-78
2024/01/23 11:18:33;;;;;;;58.75;29.45;;;3.40;99.90;;;;;;5072805;28;20048;-79
2024/01/23 11:21:08;;;;;;;54.47;28.80;;;3.40;99.90;;;;;;5072517;28;20017;-74
2024/01/23 11:23:44;;;;;;;58.38;28.25;;;3.30;99.90;;;;;;5072518;28;20029;-80
2024/01/23 11:26:22;;;;;;;53.30;28.25;;;3.20;99.90;;;;;;5053322;28;20028;-74
2024/01/23 11:28:59;;;;;;;58.33;28.02;;;3.30;99.90;;;;;;5051731;28;20509;-74
2024/01/23 11:31:28;;;;;;;52.80;26.00;;;3.20;99.90;;;;;;5052992;28;20029;-74
2024/01/23 11:34:13;;;;;;;56.38;25.63;;;3.20;99.90;;;;;;5057889;28;20024;-80
2024/01/23 11:36:39;;;;;;;52.70;25.55;;;3.20;99.90;;;;;;5056327;28;20043;-74
2024/01/23 11:39:14;;;;;;;53.58;25.75;;;3.10;99.90;;;;;;5051837;28;20029;-74
2024/01/23 11:41:50;;;;;;;53.00;26.45;;;3.10;99.90;;;;;;5053508;28;20060;-80
2024/01/23 11:44:17;;;;;;;38.63;23.35;;;3.20;99.90;;;;;;5053222;28;20025;-81
2024/01/23 11:46:47;;;;;;;54.05;25.65;;;3.10;99.90;;;;;;5065672;28;20029;-80
2024/01/23 11:49:13;;;;;;;51.22;24.75;;;3.10;99.90;;;;;;5052945;28;20021;-80
2024/01/23 11:51:38;;;;;;;48.47;25.23;;;3.10;99.90;;;;;;5052710;28;20399;-74
2024/01/23 11:54:09;;;;;;;44.25;23.92;;;3.10;99.90;;;;;;5051777;28;20382;-80
2024/01/23 11:56:40;;;;;;;46.10;23.92;;;3.10;99.90;;;;;;5053382;28;20039;-80
2024/01/23 11:59:06;;;;;;;46.90;23.77;;;3.10;99.90;;;;;;5052902;28;20020;-74
2024/01/23 12:01:34;;;;;;;48.42;24.30;;;3.20;99.90;;;;;;5052477;28;20132;-80
2024/01/23 12:04:01;;;;;;;44.58;23.48;;;3.20;99.90;;;;;;5065244;28;20066;-75
2024/01/23 12:06:28;;;;;;;53.45;26.30;;;3.20;99.90;;;;;;5053079;28;20494;-74
2024/01/23 12:08:55;;;;;;;43.92;23.67;;;3.20;99.90;;;;;;5052858;28;20021;-75
2024/01/23 12:11:20;;;;;;;48.95;24.38;;;3.20;99.90;;;;;;5051771;28;20039;-80
2024/01/23 12:13:47;;;;;;;43.78;23.50;;;3.20;99.90;;;;;;5052885;28;20471;-80
2024/01/23 12:16:14;;;;;;;50.97;24.95;;;3.20;99.90;;;;;;5052430;28;20044;-80
2024/01/23 12:18:40;;;;;;;46.03;24.67;;;3.20;99.90;;;;;;5051507;28;20049;-74
2024/01/23 12:21:06;;;;;;;44.20;24.08;;;3.20;99.90;;;;;;5053000;28;20424;-79
2024/01/23 12:23:33;;;;;;;49.78;25.92;;;3.30;99.90;;;;;;5056930;28;20029;-80
2024/01/23 12:25:59;;;;;;;47.03;24.80;;;3.30;99.90;;;;;;5055684;28;20033;-80
2024/01/23 12:28:29;;;;;;;51.17;25.50;;;3.40;99.90;;;;;;5055833;28;20021;-80
2024/01/23 12:30:55;;;;;;;51.80;24.52;;;3.40;99.90;;;;;;5054999;28;20127;-74
2024/01/23 12:33:20;;;;;;;44.10;24.75;;;3.40;99.90;;;;;;5054730;28;20116;-74